createdAt,value
2023-03-07T08:37:51.675Z,49.30
2023-03-07T08:40:18.532Z,47.70
2023-03-07T08:42:45.429Z,49.00
2023-03-07T08:45:12.648Z,50.90
2023-03-07T08:47:39.384Z,52.90
2023-03-07T08:50:06.740Z,54.40
2023-03-07T08:52:33.501Z,55.50
2023-03-07T08:55:00.319Z,57.60
2023-03-07T08:57:27.223Z,59.30
2023-03-07T08:59:53.973Z,59.30
2023-03-07T09:02:21.061Z,60.40
2023-03-07T09:04:47.814Z,61.00
2023-03-07T09:07:14.616Z,62.10
2023-03-07T09:09:41.483Z,62.70
2023-03-07T09:12:08.332Z,63.50
2023-03-07T09:14:35.054Z,64.10
2023-03-07T09:17:02.826Z,64.70
2023-03-07T09:19:29.499Z,64.60
2023-03-07T09:21:56.367Z,65.10
2023-03-07T09:24:23.077Z,65.10
2023-03-07T09:26:50.009Z,66.10
2023-03-07T09:29:16.910Z,65.50
2023-03-07T09:31:44.305Z,66.20
2023-03-07T09:34:12.136Z,66.30
2023-03-07T09:36:38.944Z,66.60
2023-03-07T09:39:06.121Z,66.90
2023-03-07T09:41:35.877Z,67.10
2023-03-07T09:44:14.154Z,67.50
2023-03-07T09:47:17.266Z,67.60
2023-03-07T09:49:51.990Z,67.80
2023-03-07T09:52:32.371Z,67.80
2023-03-07T09:55:05.817Z,68.10
2023-03-07T09:57:39.562Z,68.30
2023-03-07T10:00:17.261Z,68.00
2023-03-07T10:02:55.771Z,68.70
2023-03-07T10:05:32.409Z,68.70
2023-03-07T10:08:01.347Z,68.70
2023-03-07T10:10:42.288Z,68.50
2023-03-07T10:13:23.810Z,68.70
2023-03-07T10:16:01.395Z,68.40
2023-03-07T10:18:41.325Z,68.30
2023-03-07T10:21:29.326Z,68.70
2023-03-07T10:24:20.860Z,68.20
2023-03-07T10:27:09.817Z,67.60
2023-03-07T10:29:53.159Z,67.20
2023-03-07T10:32:34.956Z,66.60
2023-03-07T10:35:20.870Z,66.60
2023-03-07T10:38:13.493Z,66.80
2023-03-07T10:40:48.815Z,66.60
2023-03-07T10:43:28.366Z,66.20
2023-03-07T10:46:24.813Z,65.60
2023-03-07T10:48:55.888Z,64.50
2023-03-07T10:51:34.565Z,63.50
2023-03-07T10:54:02.291Z,64.20
2023-03-07T10:56:29.120Z,65.00
2023-03-07T10:59:00.345Z,65.40
2023-03-07T11:01:28.119Z,65.40
2023-03-07T11:04:19.925Z,65.50
2023-03-07T11:06:54.248Z,64.90
2023-03-07T11:09:45.844Z,65.00
2023-03-07T11:12:18.942Z,66.00
2023-03-07T11:14:50.232Z,66.10
2023-03-07T11:17:23.128Z,65.80
2023-03-07T11:19:57.259Z,66.20
2023-03-07T11:22:36.742Z,67.00
2023-03-07T11:25:26.564Z,67.20
2023-03-07T11:27:55.096Z,67.30
2023-03-07T11:30:34.248Z,67.10
2023-03-07T11:33:10.416Z,68.30
2023-03-07T11:35:49.945Z,68.20
2023-03-07T11:38:39.398Z,67.20
2023-03-07T11:41:10.384Z,67.00
2023-03-07T11:44:11.338Z,66.50
2023-03-07T11:47:02.493Z,67.00
2023-03-07T11:50:04.483Z,66.30
2023-03-07T11:53:03.043Z,66.80
2023-03-07T11:55:38.740Z,67.00
2023-03-07T11:58:27.483Z,67.20
2023-03-07T12:01:29.708Z,66.40
2023-03-07T12:04:33.618Z,65.80
2023-03-07T12:07:16.106Z,64.50
2023-03-07T12:10:09.785Z,64.20
2023-03-07T12:12:51.827Z,63.90
2023-03-07T12:15:39.278Z,63.40
2023-03-07T12:18:11.695Z,63.20
2023-03-07T12:20:50.858Z,63.60
2023-03-07T12:23:39.089Z,63.20
2023-03-07T12:26:20.212Z,63.70
2023-03-07T12:29:02.984Z,61.70
2023-03-07T12:31:39.585Z,61.60
2023-03-07T12:34:12.018Z,62.40
2023-03-07T12:36:41.057Z,63.30
2023-03-07T12:39:29.851Z,63.30
2023-03-07T12:42:13.500Z,63.70
2023-03-07T12:44:45.922Z,63.60
2023-03-07T12:47:43.347Z,64.20
2023-03-07T12:50:22.850Z,64.10
2023-03-07T12:52:59.549Z,62.90
2023-03-07T12:55:44.024Z,61.90
2023-03-07T12:58:38.450Z,62.00
2023-03-07T13:01:39.064Z,62.20
2023-03-07T13:04:42.729Z,62.40
2023-03-07T13:07:13.448Z,62.00
2023-03-07T13:09:43.002Z,62.00
2023-03-07T13:12:20.287Z,61.80
2023-03-07T13:14:57.317Z,63.10
2023-03-07T13:17:27.035Z,63.10
2023-03-07T13:19:55.641Z,63.10
2023-03-07T13:22:22.540Z,63.30
2023-03-07T13:25:21.337Z,62.40
2023-03-07T13:28:27.125Z,62.90
2023-03-07T13:31:15.625Z,63.10
2023-03-07T13:33:43.546Z,63.50
2023-03-07T13:36:32.148Z,62.70
2023-03-07T13:39:00.192Z,62.80
2023-03-07T13:41:53.346Z,63.90
2023-03-07T13:44:40.880Z,63.40
2023-03-07T13:47:45.050Z,63.00
2023-03-07T13:50:36.282Z,62.30
2023-03-07T13:53:11.503Z,62.60
2023-03-07T13:55:46.354Z,62.90
2023-03-07T13:58:35.206Z,62.90
2023-03-07T14:01:13.313Z,62.50
2023-03-07T14:03:58.444Z,62.40
2023-03-07T14:06:33.659Z,62.90
2023-03-07T14:09:02.803Z,62.90
2023-03-07T14:11:32.621Z,63.10
2023-03-07T14:14:32.577Z,63.80
2023-03-07T14:17:21.746Z,64.50
2023-03-07T14:20:09.687Z,65.10
2023-03-07T14:23:06.893Z,64.80
2023-03-07T14:25:50.248Z,64.80
2023-03-07T14:28:21.820Z,64.80
2023-03-07T14:31:01.083Z,64.60
2023-03-07T14:33:38.926Z,64.20
2023-03-07T14:36:21.007Z,64.20
2023-03-07T14:38:49.876Z,63.70
2023-03-07T14:41:20.853Z,63.20
2023-03-07T14:43:47.573Z,63.30
2023-03-07T14:46:50.230Z,62.90
2023-03-07T14:49:35.273Z,62.50
2023-03-07T14:52:02.954Z,63.10
2023-03-07T14:54:32.924Z,63.20
2023-03-07T14:57:01.403Z,63.30
2023-03-07T14:59:29.527Z,63.00
2023-03-07T15:01:57.579Z,63.10
2023-03-07T15:04:32.778Z,63.50
2023-03-07T15:07:01.278Z,64.00
2023-03-07T15:09:29.023Z,63.70
2023-03-07T15:12:02.986Z,63.40
2023-03-07T15:14:34.795Z,63.60
2023-03-07T15:17:06.472Z,64.10
2023-03-07T15:19:42.969Z,64.80
2023-03-07T15:22:23.851Z,64.40
2023-03-07T15:24:54.620Z,65.00
2023-03-07T15:27:28.449Z,64.70
2023-03-07T15:29:55.757Z,64.10
2023-03-07T15:32:37.611Z,64.30
2023-03-07T15:35:17.207Z,64.30
2023-03-07T15:38:06.945Z,64.50
2023-03-07T15:40:35.362Z,63.80
2023-03-07T15:43:05.191Z,64.40
2023-03-07T15:45:39.274Z,65.00
2023-03-07T15:48:28.353Z,64.80
2023-03-07T15:50:58.604Z,64.20
2023-03-07T15:53:31.718Z,64.20
2023-03-07T15:56:03.857Z,64.60
2023-03-07T15:58:30.943Z,64.30
2023-03-07T16:01:06.216Z,64.20
2023-03-07T16:03:33.564Z,64.60
2023-03-07T16:06:01.707Z,63.70
2023-03-07T16:08:28.564Z,63.10
2023-03-07T16:11:04.388Z,63.40
2023-03-07T16:13:34.845Z,63.20
2023-03-07T16:16:12.154Z,63.30
2023-03-07T16:18:39.248Z,63.00
2023-03-07T16:21:06.213Z,62.90
2023-03-07T16:23:34.019Z,63.70
2023-03-07T16:26:03.863Z,63.70
2023-03-07T16:28:30.757Z,63.50
2023-03-07T16:30:57.906Z,63.60
2023-03-07T16:33:24.744Z,64.60
2023-03-07T16:35:51.558Z,65.60
2023-03-07T16:38:18.440Z,66.20
2023-03-07T16:40:45.553Z,66.30
2023-03-07T16:43:31.434Z,66.30
2023-03-07T16:45:58.820Z,66.50
2023-03-07T16:48:25.563Z,66.60
2023-03-07T16:50:52.361Z,66.30
2023-03-07T16:53:19.342Z,66.80
2023-03-07T16:55:46.855Z,67.20
2023-03-07T16:58:22.285Z,68.00
2023-03-07T17:00:49.514Z,69.80
2023-03-07T17:03:16.890Z,71.50
2023-03-07T17:05:43.851Z,73.20
2023-03-07T17:08:10.596Z,74.50
2023-03-07T17:10:38.182Z,75.30
2023-03-07T17:13:08.526Z,75.80
2023-03-07T17:15:36.483Z,76.20
2023-03-07T17:18:03.831Z,76.60
2023-03-07T17:20:31.155Z,76.50
2023-03-07T17:22:58.121Z,76.70
2023-03-07T17:25:25.980Z,76.60
2023-03-07T17:28:08.394Z,76.70
2023-03-07T17:30:35.325Z,76.10
2023-03-07T17:33:02.441Z,75.90
2023-03-07T17:35:30.325Z,76.10
2023-03-07T17:37:57.420Z,76.00
2023-03-07T17:40:24.405Z,76.40
2023-03-07T17:42:54.649Z,76.50
2023-03-07T17:45:22.244Z,76.70
2023-03-07T17:47:54.021Z,77.00
2023-03-07T17:50:23.761Z,77.30
2023-03-07T17:52:52.879Z,77.50
2023-03-07T17:55:20.162Z,77.80
2023-03-07T17:57:47.135Z,78.10
2023-03-07T18:00:14.381Z,78.20
2023-03-07T18:02:44.961Z,78.20
2023-03-07T18:05:13.123Z,78.40
2023-03-07T18:07:41.286Z,78.50
2023-03-07T18:10:09.369Z,78.50
2023-03-07T18:12:39.099Z,78.70
2023-03-07T18:15:14.843Z,78.80
2023-03-07T18:17:48.342Z,79.10
2023-03-07T18:20:17.582Z,79.30
2023-03-07T18:22:44.620Z,79.30
2023-03-07T18:25:15.465Z,79.40
2023-03-07T18:27:42.228Z,79.20
2023-03-07T18:30:09.642Z,79.00
2023-03-07T18:32:36.499Z,78.80
2023-03-07T18:35:04.181Z,78.70
2023-03-07T18:37:30.919Z,78.60
2023-03-07T18:39:57.787Z,78.40
2023-03-07T18:42:24.522Z,78.30
2023-03-07T18:44:51.311Z,78.40
2023-03-07T18:47:18.069Z,78.50
2023-03-07T18:49:45.443Z,78.10
2023-03-07T18:52:12.203Z,78.10
2023-03-07T18:54:38.979Z,78.00
2023-03-07T18:57:05.731Z,78.10
2023-03-07T18:59:32.545Z,77.90
2023-03-07T19:02:03.004Z,78.00
2023-03-07T19:04:31.379Z,78.10
2023-03-07T19:07:00.554Z,78.30
2023-03-07T19:09:27.822Z,78.40
2023-03-07T19:11:54.626Z,78.50
2023-03-07T19:14:21.553Z,78.60
2023-03-07T19:16:48.829Z,78.70
2023-03-07T19:19:16.010Z,78.60
2023-03-07T19:21:43.005Z,78.20
2023-03-07T19:24:11.801Z,78.50
2023-03-07T19:26:40.824Z,78.10
2023-03-07T19:29:09.610Z,78.40
2023-03-07T19:31:36.468Z,78.10
2023-03-07T19:34:06.263Z,77.70
2023-03-07T19:36:35.264Z,77.30
2023-03-07T19:39:02.599Z,77.20
2023-03-07T19:41:31.394Z,77.50
2023-03-07T19:43:59.838Z,77.70
2023-03-07T19:46:27.057Z,77.70
2023-03-07T19:48:53.905Z,77.80
2023-03-07T19:51:23.316Z,77.80
2023-03-07T19:53:51.036Z,78.00
2023-03-07T19:56:17.741Z,78.00
2023-03-07T19:58:44.483Z,78.30
2023-03-07T20:01:13.550Z,78.30
2023-03-07T20:03:40.524Z,78.30
2023-03-07T20:06:10.815Z,78.30
2023-03-07T20:08:37.712Z,78.30
2023-03-07T20:11:09.786Z,78.30
2023-03-07T20:13:36.730Z,78.30
2023-03-07T20:16:03.844Z,78.40
2023-03-07T20:18:30.672Z,78.40
2023-03-07T20:21:01.837Z,78.40
2023-03-07T20:23:28.599Z,78.40
2023-03-07T20:26:12.030Z,78.40
2023-03-07T20:28:38.784Z,78.50
2023-03-07T20:31:10.486Z,78.40
2023-03-07T20:33:39.230Z,78.40
2023-03-07T20:36:09.150Z,78.40
2023-03-07T20:38:37.326Z,78.50
2023-03-07T20:41:14.023Z,78.50
2023-03-07T20:43:40.943Z,78.60
2023-03-07T20:46:12.765Z,78.70
2023-03-07T20:48:40.896Z,78.80
2023-03-07T20:51:18.516Z,78.80
2023-03-07T20:54:07.838Z,78.80
2023-03-07T20:56:36.728Z,79.00
2023-03-07T20:59:03.884Z,79.00
2023-03-07T21:01:32.425Z,79.00
2023-03-07T21:04:10.508Z,79.30
2023-03-07T21:06:39.698Z,79.30
2023-03-07T21:09:08.382Z,79.30
2023-03-07T21:11:37.109Z,79.40
2023-03-07T21:14:04.493Z,79.50
2023-03-07T21:16:31.497Z,79.50
2023-03-07T21:19:01.601Z,79.60
2023-03-07T21:21:29.592Z,79.60
2023-03-07T21:23:56.760Z,79.50
2023-03-07T21:26:29.283Z,79.50
2023-03-07T21:28:57.167Z,79.50
2023-03-07T21:31:26.464Z,79.60
2023-03-07T21:34:01.901Z,79.60
2023-03-07T21:36:31.313Z,79.70
2023-03-07T21:38:59.035Z,79.80
2023-03-07T21:41:26.418Z,79.90
2023-03-07T21:43:54.888Z,79.90
2023-03-07T21:46:22.250Z,80.00
2023-03-07T21:48:49.436Z,80.10
2023-03-07T21:51:16.615Z,80.00
2023-03-07T21:53:43.552Z,78.10
2023-03-07T21:56:13.228Z,76.70
2023-03-07T21:58:40.300Z,76.10
2023-03-07T22:01:15.944Z,76.30
2023-03-07T22:03:42.877Z,76.50
2023-03-07T22:06:12.876Z,76.50
2023-03-07T22:08:40.174Z,76.70
2023-03-07T22:11:09.240Z,76.90
2023-03-07T22:13:39.648Z,77.10
2023-03-07T22:16:09.848Z,77.20
2023-03-07T22:18:36.715Z,77.30
2023-03-07T22:21:13.988Z,77.50
2023-03-07T22:23:41.848Z,77.50
2023-03-07T22:26:09.920Z,77.70
2023-03-07T22:28:37.420Z,77.80
2023-03-07T22:31:06.247Z,78.00
2023-03-07T22:33:33.937Z,78.10
2023-03-07T22:36:02.940Z,78.20
2023-03-07T22:38:30.316Z,78.20
2023-03-07T22:41:01.429Z,78.40
2023-03-07T22:43:30.950Z,78.40
2023-03-07T22:45:57.787Z,78.50
2023-03-07T22:48:24.603Z,78.60
2023-03-07T22:50:51.399Z,78.70
2023-03-07T22:53:18.190Z,78.60
2023-03-07T22:55:45.366Z,78.80
2023-03-07T22:58:12.702Z,78.70
2023-03-07T23:00:41.628Z,78.80
2023-03-07T23:03:08.796Z,78.90
2023-03-07T23:05:36.424Z,79.10
2023-03-07T23:08:04.462Z,79.10
2023-03-07T23:10:32.346Z,79.10
2023-03-07T23:12:59.477Z,79.10
2023-03-07T23:15:26.709Z,79.30
2023-03-07T23:17:54.694Z,79.20
2023-03-07T23:20:25.475Z,79.30
2023-03-07T23:22:53.528Z,79.40
2023-03-07T23:25:20.921Z,79.50
2023-03-07T23:27:48.040Z,79.60
2023-03-07T23:30:17.271Z,79.70
2023-03-07T23:32:44.646Z,79.60
2023-03-07T23:35:11.940Z,79.60
2023-03-07T23:37:39.157Z,79.60
2023-03-07T23:40:07.258Z,79.60
2023-03-07T23:42:34.013Z,79.80
2023-03-07T23:45:00.742Z,79.70
2023-03-07T23:47:27.470Z,79.70
2023-03-07T23:49:54.246Z,79.80
2023-03-07T23:52:20.999Z,79.90
2023-03-07T23:54:47.868Z,79.80
2023-03-07T23:57:14.716Z,79.80
2023-03-07T23:59:41.390Z,79.90
